createdAt,value
2022-09-21T00:01:30.385Z,101885.44
2022-09-21T00:04:01.569Z,101868.56
2022-09-21T00:06:33.480Z,101883.69
2022-09-21T00:09:03.894Z,101879.31
2022-09-21T00:11:35.148Z,101879.75
2022-09-21T00:14:07.326Z,101878.41
2022-09-21T00:16:36.133Z,101891.78
2022-09-21T00:19:04.540Z,101897.91
2022-09-21T00:21:33.719Z,101899.88
2022-09-21T00:24:03.171Z,101907.88
2022-09-21T00:26:33.095Z,101911.28
2022-09-21T00:29:03.540Z,101911.06
2022-09-21T00:31:32.449Z,101903.63
2022-09-21T00:34:03.490Z,101901.50
2022-09-21T00:36:31.706Z,101893.69
2022-09-21T00:39:01.921Z,101889.06
2022-09-21T00:41:32.048Z,101894.75
2022-09-21T00:44:29.001Z,101891.50
2022-09-21T00:46:59.812Z,101895.56
2022-09-21T00:49:29.181Z,101894.63
2022-09-21T00:51:59.401Z,101894.41
2022-09-21T00:54:31.067Z,101894.75
2022-09-21T00:57:01.747Z,101895.56
2022-09-21T00:59:33.180Z,101889.69
2022-09-21T01:02:01.565Z,101886.03
2022-09-21T01:04:30.532Z,101884.13
2022-09-21T01:07:02.086Z,101890.44
2022-09-21T01:09:30.432Z,101892.03
2022-09-21T01:12:11.217Z,101886.88
2022-09-21T01:14:54.420Z,101894.97
2022-09-21T01:17:28.897Z,101902.09
2022-09-21T01:20:23.797Z,101906.25
2022-09-21T01:23:09.083Z,101900.81
2022-09-21T01:25:49.890Z,101907.72
2022-09-21T01:28:30.351Z,101909.59
2022-09-21T01:31:06.362Z,101904.22
2022-09-21T01:33:37.855Z,101893.00
2022-09-21T01:36:10.904Z,101900.25
2022-09-21T01:38:43.341Z,101898.34
2022-09-21T01:41:16.284Z,101902.88
2022-09-21T01:43:50.328Z,101909.38
2022-09-21T01:46:22.827Z,101908.66
2022-09-21T01:48:54.095Z,101904.09
2022-09-21T01:51:26.567Z,101907.41
2022-09-21T01:53:59.039Z,101910.94
2022-09-21T01:56:31.843Z,101905.25
2022-09-21T01:59:08.286Z,101910.88
2022-09-21T02:01:43.518Z,101925.47
2022-09-21T02:04:13.931Z,101925.19
2022-09-21T02:06:46.130Z,101917.34
2022-09-21T02:09:15.152Z,101919.13
2022-09-21T02:11:43.908Z,101920.78
2022-09-21T02:14:14.316Z,101914.66
2022-09-21T02:16:50.937Z,101907.72
2022-09-21T02:19:24.374Z,101917.31
2022-09-21T02:21:59.445Z,101911.94
2022-09-21T02:24:36.512Z,101924.88
2022-09-21T02:27:07.530Z,101925.00
2022-09-21T02:29:48.122Z,101929.34
2022-09-21T02:32:26.540Z,101935.88
2022-09-21T02:34:59.985Z,101937.97
2022-09-21T02:37:35.414Z,101939.84
2022-09-21T02:40:10.125Z,101942.13
2022-09-21T02:42:42.736Z,101936.91
2022-09-21T02:45:16.161Z,101939.91
2022-09-21T02:47:50.418Z,101938.44
2022-09-21T02:50:24.801Z,101936.53
2022-09-21T02:52:55.246Z,101937.47
2022-09-21T02:55:25.027Z,101925.34
2022-09-21T02:57:55.769Z,101927.78
2022-09-21T03:00:23.985Z,101928.47
2022-09-21T03:02:53.473Z,101933.84
2022-09-21T03:05:21.716Z,101930.34
2022-09-21T03:07:49.845Z,101931.28
2022-09-21T03:10:19.375Z,101935.16
2022-09-21T03:12:47.504Z,101934.09
2022-09-21T03:15:17.302Z,101933.84
2022-09-21T03:17:45.426Z,101941.06
2022-09-21T03:20:16.080Z,101935.81
2022-09-21T03:22:44.210Z,101944.56
2022-09-21T03:25:13.052Z,101946.31
2022-09-21T03:27:42.753Z,101947.91
2022-09-21T03:30:12.048Z,101942.66
2022-09-21T03:32:40.536Z,101932.16
2022-09-21T03:35:09.411Z,101934.88
2022-09-21T03:37:41.286Z,101941.53
2022-09-21T03:40:11.599Z,101942.63
2022-09-21T03:42:39.989Z,101938.94
2022-09-21T03:45:09.862Z,101945.38
2022-09-21T03:47:38.805Z,101948.13
2022-09-21T03:50:10.220Z,101953.28
2022-09-21T03:52:40.231Z,101963.16
2022-09-21T03:55:10.288Z,101947.47
2022-09-21T03:57:38.838Z,101961.06
2022-09-21T04:00:10.630Z,101955.69
2022-09-21T04:02:40.017Z,101961.38
2022-09-21T04:05:09.495Z,101947.38
2022-09-21T04:07:38.432Z,101950.56
2022-09-21T04:10:12.993Z,101956.72
2022-09-21T04:12:43.713Z,101951.47
2022-09-21T04:15:12.505Z,101950.94
2022-09-21T04:17:41.208Z,101966.63
2022-09-21T04:20:10.469Z,101965.56
2022-09-21T04:22:42.703Z,101965.28
2022-09-21T04:25:13.267Z,101968.59
2022-09-21T04:27:41.883Z,101974.31
2022-09-21T04:30:12.532Z,101977.69
2022-09-21T04:32:41.006Z,101966.97
2022-09-21T04:35:09.851Z,101973.03
2022-09-21T04:37:38.083Z,101969.78
2022-09-21T04:40:07.542Z,101968.66
2022-09-21T04:42:37.179Z,101970.34
2022-09-21T04:45:06.191Z,101972.09
2022-09-21T04:47:34.313Z,101966.16
2022-09-21T04:50:02.454Z,101965.88
2022-09-21T04:52:30.612Z,101962.34
2022-09-21T04:54:59.340Z,101965.06
2022-09-21T04:57:27.501Z,101956.16
2022-09-21T04:59:56.975Z,101958.91
2022-09-21T05:02:25.406Z,101954.53
2022-09-21T05:04:53.552Z,101967.34
2022-09-21T05:07:21.663Z,101969.22
2022-09-21T05:10:06.611Z,101963.22
2022-09-21T05:12:39.784Z,101971.78
2022-09-21T05:15:11.435Z,101982.84
2022-09-21T05:17:39.765Z,101985.56
2022-09-21T05:20:08.412Z,101989.06
2022-09-21T05:22:36.591Z,101993.28
2022-09-21T05:25:05.399Z,101994.81
2022-09-21T05:27:33.509Z,101991.44
2022-09-21T05:30:02.191Z,101994.06
2022-09-21T05:32:42.536Z,101991.44
2022-09-21T05:35:19.230Z,102002.00
2022-09-21T05:37:54.533Z,101996.63
2022-09-21T05:40:23.149Z,101999.03
2022-09-21T05:42:51.895Z,101999.50
2022-09-21T05:45:23.029Z,102013.72
2022-09-21T05:48:07.313Z,102014.94
2022-09-21T05:50:49.013Z,102025.00
2022-09-21T05:53:30.000Z,102020.75
2022-09-21T05:56:00.793Z,102027.28
2022-09-21T05:58:38.005Z,102023.56
2022-09-21T06:01:20.578Z,102024.47
2022-09-21T06:03:50.656Z,102023.38
2022-09-21T06:06:20.025Z,102029.97
2022-09-21T06:08:48.311Z,102028.59
2022-09-21T06:11:16.827Z,102024.13
2022-09-21T06:13:44.990Z,102033.41
2022-09-21T06:16:13.155Z,102032.31
2022-09-21T06:18:42.408Z,102031.94
2022-09-21T06:21:11.996Z,102034.94
2022-09-21T06:23:40.148Z,102032.81
2022-09-21T06:26:08.316Z,102026.28
2022-09-21T06:28:36.488Z,102027.34
2022-09-21T06:31:04.840Z,102028.03
2022-09-21T06:33:35.549Z,102028.03
2022-09-21T06:36:03.749Z,102025.28
2022-09-21T06:38:35.257Z,102023.19
2022-09-21T06:41:05.066Z,102024.56
2022-09-21T06:43:33.297Z,102031.78
2022-09-21T06:46:03.203Z,102022.34
2022-09-21T06:48:33.552Z,102018.66
2022-09-21T06:51:02.651Z,102011.38
2022-09-21T06:53:33.800Z,102015.06
2022-09-21T06:56:03.003Z,102015.00
2022-09-21T06:58:31.524Z,102008.38
2022-09-21T07:00:59.877Z,102008.94
2022-09-21T07:03:28.125Z,101995.81
2022-09-21T07:05:56.272Z,101989.56
2022-09-21T07:11:14.463Z,101983.34
2022-09-21T07:13:42.724Z,101987.13
2022-09-21T07:16:11.087Z,101986.78
2022-09-21T07:18:43.801Z,101989.84
2022-09-21T07:21:14.795Z,101990.09
2022-09-21T07:23:42.966Z,101984.16
2022-09-21T07:26:14.949Z,101989.88
2022-09-21T07:28:43.320Z,101989.69
2022-09-21T07:31:13.969Z,101992.50
2022-09-21T07:33:42.899Z,101998.53
2022-09-21T07:36:13.135Z,101991.47
2022-09-21T07:38:43.852Z,101990.91
2022-09-21T07:41:14.856Z,101987.28
2022-09-21T07:43:43.331Z,101983.94
2022-09-21T07:46:14.474Z,101994.53
2022-09-21T07:48:43.285Z,101993.34
2022-09-21T07:51:13.339Z,101992.31
2022-09-21T07:53:43.989Z,101997.72
2022-09-21T07:56:15.774Z,102000.69
2022-09-21T07:59:02.130Z,101999.81
2022-09-21T08:01:31.514Z,102005.72
2022-09-21T08:04:01.009Z,102000.97
2022-09-21T08:06:32.823Z,101997.16
2022-09-21T08:09:01.096Z,101994.84
2022-09-21T08:11:33.143Z,101993.44
2022-09-21T08:14:03.088Z,101988.59
2022-09-21T08:16:32.348Z,101996.75
2022-09-21T08:19:02.202Z,101991.31
2022-09-21T08:21:30.436Z,101990.06
2022-09-21T08:23:58.716Z,101991.69
2022-09-21T08:26:27.943Z,101988.50
2022-09-21T08:28:58.945Z,101994.69
2022-09-21T08:31:27.835Z,101990.69
2022-09-21T08:33:57.898Z,101989.19
2022-09-21T08:36:26.441Z,101994.78
2022-09-21T08:38:56.627Z,101984.75
2022-09-21T08:41:30.431Z,101990.56
2022-09-21T08:44:06.359Z,101989.81
2022-09-21T08:46:37.605Z,101996.00
2022-09-21T08:49:10.130Z,101994.44
2022-09-21T08:51:42.903Z,101992.72
2022-09-21T08:54:16.172Z,101993.31
2022-09-21T08:57:03.942Z,101988.56
2022-09-21T08:59:35.130Z,101994.69
2022-09-21T09:02:25.443Z,101991.66
2022-09-21T09:05:03.793Z,101989.44
2022-09-21T09:07:54.388Z,101992.88
2022-09-21T09:10:37.115Z,101994.25
2022-09-21T09:13:26.344Z,101991.00
2022-09-21T09:16:08.638Z,101997.78
2022-09-21T09:18:45.108Z,101990.97
2022-09-21T09:21:26.750Z,101994.41
2022-09-21T09:24:03.689Z,101999.13
2022-09-21T09:26:37.478Z,101999.38
2022-09-21T09:29:12.404Z,101995.09
2022-09-21T09:31:42.803Z,101995.56
2022-09-21T09:34:14.277Z,101997.38
2022-09-21T09:36:58.222Z,101994.34
2022-09-21T09:39:29.418Z,102001.16
2022-09-21T09:42:09.887Z,102002.06
2022-09-21T09:44:53.031Z,102004.09
2022-09-21T09:47:34.214Z,102003.22
2022-09-21T09:50:07.735Z,102008.72
2022-09-21T09:52:36.074Z,102005.28
2022-09-21T09:55:16.535Z,102009.41
2022-09-21T09:57:44.945Z,102000.34
2022-09-21T10:00:15.332Z,101997.44
2022-09-21T10:02:52.690Z,102001.88
2022-09-21T10:05:23.729Z,102007.69
2022-09-21T10:07:52.829Z,101985.97
2022-09-21T10:10:32.175Z,101987.97
2022-09-21T10:13:07.381Z,101985.66
2022-09-21T10:15:42.706Z,101974.78
2022-09-21T10:18:19.296Z,101984.63
2022-09-21T10:20:59.633Z,101981.16
2022-09-21T10:23:28.315Z,101977.91
2022-09-21T10:26:00.973Z,101980.25
2022-09-21T10:28:29.829Z,101979.25
2022-09-21T10:31:11.350Z,101985.59
2022-09-21T10:33:54.468Z,101980.25
2022-09-21T10:36:29.564Z,101976.41
2022-09-21T10:39:10.398Z,101976.56
2022-09-21T10:41:39.063Z,101983.56
2022-09-21T10:44:16.271Z,101976.66
2022-09-21T10:46:46.090Z,101965.59
2022-09-21T10:49:21.456Z,101973.00
2022-09-21T10:51:51.995Z,101987.41
2022-09-21T10:54:25.587Z,101989.53
2022-09-21T10:56:57.065Z,101989.47
2022-09-21T10:59:28.399Z,101987.84
2022-09-21T11:01:58.219Z,101991.38
2022-09-21T11:04:41.988Z,101983.16
2022-09-21T11:07:21.605Z,101994.63
2022-09-21T11:09:55.498Z,101990.38
2022-09-21T11:12:35.083Z,101983.88
2022-09-21T11:15:15.718Z,101984.38
2022-09-21T11:17:49.294Z,101992.28
2022-09-21T11:20:27.869Z,101985.72
2022-09-21T11:23:04.301Z,101978.22
2022-09-21T11:25:42.523Z,101972.44
2022-09-21T11:28:17.701Z,101984.94
2022-09-21T11:31:04.483Z,101994.97
2022-09-21T11:33:46.814Z,101988.47
2022-09-21T11:36:24.267Z,101994.03
2022-09-21T11:38:59.684Z,101998.25
2022-09-21T11:41:50.955Z,102003.78
2022-09-21T11:44:28.756Z,101996.41
2022-09-21T11:47:07.081Z,101992.94
2022-09-21T11:50:07.671Z,102002.28
2022-09-21T11:52:56.651Z,101999.28
2022-09-21T11:55:44.482Z,102007.03
2022-09-21T11:58:24.666Z,102005.31
2022-09-21T12:01:02.747Z,101999.03
2022-09-21T12:03:56.867Z,101997.56
2022-09-21T12:06:39.011Z,101995.56
2022-09-21T12:09:42.083Z,101993.53
2022-09-21T12:12:16.456Z,101990.19
2022-09-21T12:14:55.615Z,101988.13
2022-09-21T12:17:33.106Z,101981.25
2022-09-21T12:20:07.671Z,101986.63
2022-09-21T12:22:40.208Z,101982.66
2022-09-21T12:25:17.001Z,101998.63
2022-09-21T12:27:50.247Z,101997.97
2022-09-21T12:30:20.851Z,101990.91
2022-09-21T12:32:58.593Z,102004.09
2022-09-21T12:35:33.641Z,101993.59
2022-09-21T12:38:10.092Z,102001.09
2022-09-21T12:40:45.840Z,101994.19
2022-09-21T12:43:23.356Z,101998.63
2022-09-21T12:45:57.170Z,101992.28
2022-09-21T12:48:32.062Z,101994.16
2022-09-21T12:51:07.292Z,101991.03
2022-09-21T12:53:38.764Z,101994.03
2022-09-21T12:56:13.706Z,101995.81
2022-09-21T12:58:54.645Z,102003.75
2022-09-21T13:01:32.631Z,102007.75
2022-09-21T13:04:14.016Z,102007.34
2022-09-21T13:07:17.787Z,101995.69
2022-09-21T13:09:47.975Z,101992.16
2022-09-21T13:12:21.480Z,101981.91
2022-09-21T13:14:53.385Z,101974.09
2022-09-21T13:17:24.051Z,101978.09
2022-09-21T13:20:00.048Z,101974.50
2022-09-21T13:22:33.347Z,101972.44
2022-09-21T13:25:06.861Z,101973.69
2022-09-21T13:28:00.594Z,101971.47
2022-09-21T13:30:38.262Z,101964.19
2022-09-21T13:33:30.935Z,101962.09
2022-09-21T13:36:05.700Z,101940.13
2022-09-21T13:38:44.969Z,101920.69
2022-09-21T13:41:45.450Z,101916.06
2022-09-21T13:44:36.625Z,101914.88
2022-09-21T13:47:05.589Z,101911.34
2022-09-21T13:49:54.058Z,101915.16
2022-09-21T13:52:37.341Z,101913.63
2022-09-21T13:55:09.252Z,101911.22
2022-09-21T13:57:40.948Z,101911.13
2022-09-21T14:00:36.969Z,101918.16
2022-09-21T14:03:18.089Z,101935.72
2022-09-21T14:05:48.127Z,101928.84
2022-09-21T14:08:23.613Z,101934.34
2022-09-21T14:10:56.756Z,101934.69
2022-09-21T14:13:31.459Z,101938.78
2022-09-21T14:16:51.229Z,101942.84
2022-09-21T14:20:09.287Z,101934.84
2022-09-21T14:22:42.428Z,101939.50
2022-09-21T14:25:48.852Z,101935.19
2022-09-21T14:28:18.357Z,101928.22
2022-09-21T14:30:54.281Z,101931.72
2022-09-21T14:33:35.433Z,101926.69
2022-09-21T14:36:09.049Z,101926.53
2022-09-21T14:38:45.961Z,101921.13
2022-09-21T14:41:19.767Z,101916.81
2022-09-21T14:43:53.333Z,101915.69
2022-09-21T14:46:45.199Z,101921.75
2022-09-21T14:49:30.055Z,101914.66
2022-09-21T14:52:12.865Z,101917.88
2022-09-21T14:54:57.132Z,101920.59
2022-09-21T14:57:43.314Z,101921.16
2022-09-21T15:00:21.118Z,101919.00
2022-09-21T15:03:06.109Z,101917.31
2022-09-21T15:05:38.428Z,101920.53
2022-09-21T15:08:46.165Z,101918.34
2022-09-21T15:11:21.487Z,101924.34
2022-09-21T15:14:12.120Z,101922.16
2022-09-21T15:16:42.886Z,101932.44
2022-09-21T15:19:24.705Z,101931.59
2022-09-21T15:21:56.532Z,101928.88
2022-09-21T15:24:28.118Z,101922.50
2022-09-21T15:27:05.617Z,101928.34
2022-09-21T15:29:35.099Z,101930.53
2022-09-21T15:32:03.971Z,101924.19
2022-09-21T15:34:32.385Z,101919.69
2022-09-21T15:37:10.500Z,101921.53
2022-09-21T15:39:40.269Z,101933.59
2022-09-21T15:42:20.034Z,101922.88
2022-09-21T15:44:51.086Z,101917.44
2022-09-21T15:47:22.963Z,101916.72
2022-09-21T15:49:52.105Z,101907.56
2022-09-21T15:52:29.961Z,101914.19
2022-09-21T15:55:00.728Z,101917.88
2022-09-21T15:57:38.971Z,101912.63
2022-09-21T16:00:19.459Z,101919.00
2022-09-21T16:03:04.408Z,101915.06
2022-09-21T16:05:48.027Z,101921.38
2022-09-21T16:08:27.359Z,101920.38
2022-09-21T16:11:13.201Z,101916.84
2022-09-21T16:14:00.318Z,101919.44
2022-09-21T16:16:28.713Z,101923.13
2022-09-21T16:19:00.014Z,101929.78
2022-09-21T16:21:32.303Z,101933.38
2022-09-21T16:24:12.340Z,101929.66
2022-09-21T16:26:41.563Z,101923.72
2022-09-21T16:29:23.551Z,101922.22
2022-09-21T16:31:52.446Z,101922.78
2022-09-21T16:34:36.627Z,101917.25
2022-09-21T16:37:25.206Z,101907.63
2022-09-21T16:39:56.228Z,101903.00
2022-09-21T16:42:27.091Z,101909.13
2022-09-21T16:44:56.084Z,101910.75
2022-09-21T16:47:26.577Z,101914.13
2022-09-21T16:49:56.430Z,101916.91
2022-09-21T16:52:25.383Z,101907.94
2022-09-21T16:54:56.545Z,101908.34
2022-09-21T16:57:25.885Z,101904.66
2022-09-21T16:59:54.674Z,101900.28
2022-09-21T17:02:23.587Z,101916.28
2022-09-21T17:04:51.758Z,101914.66
2022-09-21T17:07:19.956Z,101918.84
2022-09-21T17:09:48.468Z,101912.84
2022-09-21T17:12:18.987Z,101926.94
2022-09-21T17:14:47.691Z,101921.78
2022-09-21T17:17:19.151Z,101920.03
2022-09-21T17:19:49.930Z,101918.66
2022-09-21T17:22:19.091Z,101917.88
2022-09-21T17:24:51.792Z,101916.47
2022-09-21T17:27:23.945Z,101917.84
2022-09-21T17:29:53.863Z,101920.56
2022-09-21T17:32:24.801Z,101916.34
2022-09-21T17:34:58.623Z,101915.81
2022-09-21T17:37:27.250Z,101915.03
2022-09-21T17:39:55.929Z,101918.13
2022-09-21T17:42:26.116Z,101913.16
2022-09-21T17:45:17.089Z,101922.34
2022-09-21T17:47:45.508Z,101909.47
2022-09-21T17:50:22.993Z,101910.75
2022-09-21T17:53:09.572Z,101912.19
2022-09-21T17:55:38.829Z,101918.91
2022-09-21T17:58:20.351Z,101921.41
2022-09-21T18:00:58.175Z,101915.97
2022-09-21T18:03:28.683Z,101917.22
2022-09-21T18:06:00.834Z,101919.16
2022-09-21T18:08:29.487Z,101928.97
2022-09-21T18:11:13.353Z,101928.00
2022-09-21T18:13:55.160Z,101929.59
2022-09-21T18:16:35.548Z,101926.91
2022-09-21T18:19:23.314Z,101935.31
2022-09-21T18:21:57.314Z,101932.72
2022-09-21T18:24:31.076Z,101948.09
2022-09-21T18:27:00.241Z,101944.09
2022-09-21T18:29:39.929Z,101936.78
2022-09-21T18:32:25.235Z,101944.31
2022-09-21T18:35:28.228Z,101939.47
2022-09-21T18:38:13.588Z,101942.19
2022-09-21T18:40:52.368Z,101937.53
2022-09-21T18:43:30.569Z,101939.19
2022-09-21T18:46:03.876Z,101939.97
2022-09-21T18:48:50.855Z,101937.69
2022-09-21T18:51:26.182Z,101947.56
2022-09-21T18:53:56.804Z,101942.28
2022-09-21T18:56:26.284Z,101948.91
2022-09-21T18:58:57.040Z,101952.25
2022-09-21T19:01:29.750Z,101944.19
2022-09-21T19:03:58.567Z,101939.41
2022-09-21T19:06:38.113Z,101946.13
2022-09-21T19:09:15.432Z,101945.88
2022-09-21T19:11:49.985Z,101950.44
2022-09-21T19:14:26.112Z,101951.34
2022-09-21T19:17:07.519Z,101954.97
2022-09-21T19:19:45.255Z,101958.97
2022-09-21T19:22:16.558Z,101966.41
2022-09-21T19:24:57.025Z,101958.84
2022-09-21T19:27:35.976Z,101963.38
2022-09-21T19:30:08.529Z,101965.00
2022-09-21T19:32:44.356Z,101954.50
2022-09-21T19:35:20.368Z,101957.28
2022-09-21T19:37:49.801Z,101963.38
2022-09-21T19:40:20.593Z,101951.31
2022-09-21T19:43:04.131Z,101967.78
2022-09-21T19:45:42.566Z,101963.63
2022-09-21T19:48:16.192Z,101965.03
2022-09-21T19:50:50.978Z,101970.69
2022-09-21T19:53:38.152Z,101975.16
2022-09-21T19:56:29.797Z,101972.00
2022-09-21T19:59:16.018Z,101978.88
2022-09-21T20:01:52.558Z,101981.56
2022-09-21T20:04:27.991Z,101980.16
2022-09-21T20:07:03.177Z,101980.09
2022-09-21T20:09:39.727Z,101977.63
2022-09-21T20:12:19.552Z,101982.56
2022-09-21T20:14:51.636Z,101976.16
2022-09-21T20:17:25.016Z,101979.72
2022-09-21T20:20:01.019Z,101975.03
2022-09-21T20:22:35.977Z,101972.16
2022-09-21T20:25:13.416Z,101976.22
2022-09-21T20:27:45.736Z,101985.78
2022-09-21T20:30:16.024Z,101977.88
2022-09-21T20:32:46.947Z,101982.69
2022-09-21T20:35:19.039Z,101982.84
2022-09-21T20:37:47.404Z,101987.16
2022-09-21T20:40:16.301Z,101993.56
2022-09-21T20:42:44.660Z,101991.28
2022-09-21T20:45:14.547Z,101990.97
2022-09-21T20:47:43.036Z,101992.31
2022-09-21T20:50:13.891Z,101988.75
2022-09-21T20:52:45.081Z,101985.47
2022-09-21T20:55:17.141Z,101992.81
2022-09-21T20:57:45.609Z,101987.50
2022-09-21T21:00:15.700Z,101985.28
2022-09-21T21:02:44.393Z,101982.31
2022-09-21T21:05:12.708Z,101985.09
2022-09-21T21:07:43.448Z,101980.03
2022-09-21T21:10:14.142Z,101988.66
2022-09-21T21:12:42.905Z,101994.91
2022-09-21T21:15:12.475Z,101994.84
2022-09-21T21:17:42.077Z,101996.56
2022-09-21T21:20:11.261Z,101998.47
2022-09-21T21:22:39.418Z,101996.03
2022-09-21T21:25:10.056Z,102002.28
2022-09-21T21:27:38.501Z,102001.53
2022-09-21T21:30:08.221Z,102003.63
2022-09-21T21:32:37.326Z,102000.91
2022-09-21T21:35:06.482Z,101989.91
2022-09-21T21:37:34.698Z,101995.38
2022-09-21T21:40:03.327Z,101996.53
2022-09-21T21:42:32.888Z,101982.97
2022-09-21T21:45:01.080Z,101989.00
2022-09-21T21:47:44.617Z,101988.41
2022-09-21T21:50:12.836Z,101996.34
2022-09-21T21:52:41.492Z,101988.47
2022-09-21T21:55:10.396Z,101993.91
2022-09-21T21:57:39.987Z,101997.72
2022-09-21T22:00:09.502Z,101997.22
2022-09-21T22:02:37.800Z,102005.84
2022-09-21T22:05:06.795Z,102001.69
2022-09-21T22:07:34.977Z,102009.66
2022-09-21T22:10:03.245Z,101998.22
2022-09-21T22:12:31.732Z,102011.03
2022-09-21T22:15:02.698Z,102009.19
2022-09-21T22:17:31.779Z,101998.03
2022-09-21T22:20:00.012Z,101998.72
2022-09-21T22:22:28.148Z,101998.94
2022-09-21T22:24:56.579Z,101992.56
2022-09-21T22:27:24.913Z,102001.22
2022-09-21T22:29:53.037Z,102001.13
2022-09-21T22:32:22.622Z,102004.03
2022-09-21T22:34:50.989Z,101999.41
2022-09-21T22:37:19.184Z,102008.53
2022-09-21T22:39:47.295Z,102003.16
2022-09-21T22:42:15.429Z,102003.59
2022-09-21T22:44:43.604Z,102005.41
2022-09-21T22:47:11.723Z,102002.69
2022-09-21T22:49:41.271Z,102004.00
2022-09-21T22:52:09.405Z,102005.75
2022-09-21T22:54:37.754Z,102005.63
2022-09-21T22:57:06.445Z,102005.47
2022-09-21T22:59:34.581Z,102002.78
2022-09-21T23:02:02.693Z,101998.06
2022-09-21T23:04:30.865Z,101991.75
2022-09-21T23:07:00.415Z,101989.66
2022-09-21T23:09:28.569Z,101992.69
2022-09-21T23:11:56.697Z,101991.69
2022-09-21T23:14:25.046Z,101994.44
2022-09-21T23:16:53.254Z,102001.69
2022-09-21T23:19:21.399Z,101991.94
2022-09-21T23:21:50.994Z,101991.38
2022-09-21T23:24:20.781Z,102002.47
2022-09-21T23:26:55.260Z,101989.00
2022-09-21T23:29:23.395Z,101997.41
2022-09-21T23:31:51.555Z,101999.16
2022-09-21T23:34:19.705Z,101993.78
2022-09-21T23:36:47.975Z,101990.34
2022-09-21T23:39:16.871Z,101992.34
2022-09-21T23:41:46.369Z,101995.28
2022-09-21T23:44:14.839Z,101995.72
2022-09-21T23:46:43.622Z,101992.13
2022-09-21T23:49:11.830Z,101996.13
2022-09-21T23:51:40.928Z,101997.22
2022-09-21T23:54:09.290Z,101989.69
2022-09-21T23:56:37.962Z,101994.88
2022-09-21T23:59:08.180Z,101997.97
